Hallwood, Virginia
Current Conditions -  °F | °C
As of 2:54 PM on Wednesday 26 Nov 2014 (Local Time) from KWAL Reporting Station
Light Rain Light Rain  
Wind Chill: 35°   Ceiling: 1000
Heat Index: 42°   Visibility: 8mi
Dew Point: 40°   Wind: 13mph
Humidity: 92%   Direction: 10°N
Pressure: 29.71"   Gusts: 24mph
Location:  37.88°N, 75.59°W
Report Text: KWAL 261954Z AUTO 01011G21KT 8SM -RA OVC010 06/04 A2971 RMK AO2 CIG 007V013 SLP059 P0006 T00560044
Loading
Personal Weather Stations






























Interactive Weather Map New forecast layout! Learn more

10-Day Weather Forecast

Advertisements
Track Severe Weather on mobile